Аэропорт: Могилёв. Могилёв

ICAO: UMOO

METAR:
2021-07-28 13:00:00
UMOO 281300Z 28005MPS 9999 BKN032 26/17 Q1012 R13/CLRD// NOSIG
METAR:
2021-07-28 11:03:00
TAF UMOO 281103Z 2812/2821 25006MPS 8000 BKN016 TEMPO 2812/2821 27007G12MPS 3000 -TSRA BKN007 BKN020CB